WMKK/KUL METAR and TAF weather

Enter ICAO airport designator
Station Type Date Time Source
WMKK METAR 2024/04/18 07:00 UTC NOAA

WMKK 180700Z VRB03KT 8000 VCSH FEW017CB SCT018 33/27 Q1006 NOSIG


Station Type Date Time Source
WMKK Decoded METAR 2024/04/18 07:00 UTC NOAA

Sepang/KL International Airport, Malaysia (WMKK) 02-44N 101-42E 22M
Apr 18, 2024 - 03:00 AM EDT / 2024.04.18 0700 UTC
Wind: Variable at 3 MPH (3 KT):0
Visibility: 4 mile(s):0
Sky conditions: partly cloudy
Weather: showers in the vicinity; Cumulonimbus clouds observed
Temperature: 91 F (33 C)
Heat index: 109.0 F (42.8 C):1
Dew Point: 80 F (27 C)
Relative Humidity: 70%
Pressure (altimeter): 29.71 in. Hg (1006 hPa)
ob: WMKK 180700Z VRB03KT 8000 VCSH FEW017CB SCT018 33/27 Q1006 NOSIG
cycle: 7

Station Type Date Time Source
WMKK TAF 2024/04/18 18:12 UTC NOAA